createdAt,value
2024-02-13T00:06:35.280Z,6.67
2024-02-13T00:17:08.757Z,6.62
2024-02-13T00:27:34.922Z,6.56
2024-02-13T00:37:59.458Z,6.45
2024-02-13T00:48:24.573Z,6.30
2024-02-13T00:58:48.990Z,6.14
2024-02-13T01:09:13.035Z,6.09
2024-02-13T01:19:38.138Z,6.00
2024-02-13T01:30:02.229Z,5.95
2024-02-13T01:40:26.335Z,5.86
2024-02-13T01:50:51.935Z,5.73
2024-02-13T02:01:16.192Z,5.73
2024-02-13T02:11:40.575Z,5.83
2024-02-13T02:22:08.283Z,5.92
2024-02-13T02:32:32.070Z,5.89
2024-02-13T02:43:01.174Z,5.81
2024-02-13T02:53:25.145Z,5.82
2024-02-13T03:03:51.726Z,5.86
2024-02-13T03:14:15.795Z,5.84
2024-02-13T03:24:40.783Z,5.79
2024-02-13T03:35:04.995Z,5.73
2024-02-13T03:45:28.654Z,5.63
2024-02-13T03:55:52.620Z,5.46
2024-02-13T04:06:16.894Z,5.37
2024-02-13T04:16:42.861Z,5.35
2024-02-13T04:27:07.566Z,5.31
2024-02-13T04:37:31.259Z,5.31
2024-02-13T04:47:55.768Z,5.31
2024-02-13T04:58:21.650Z,5.35
2024-02-13T05:08:46.731Z,5.39
2024-02-13T05:19:11.402Z,5.28
2024-02-13T05:29:43.550Z,5.05
2024-02-13T05:40:09.367Z,4.93
2024-02-13T05:50:33.786Z,4.98
2024-02-13T06:00:59.232Z,5.12
2024-02-13T06:11:25.346Z,5.23
2024-02-13T06:21:50.322Z,5.33
2024-02-13T06:32:15.098Z,5.34
2024-02-13T06:42:38.763Z,5.30
2024-02-13T06:53:03.469Z,5.18
2024-02-13T07:03:28.132Z,5.04
2024-02-13T07:13:53.230Z,5.03
2024-02-13T07:24:17.656Z,5.08
2024-02-13T07:34:43.914Z,5.08
2024-02-13T07:45:10.463Z,5.12
2024-02-13T07:55:37.889Z,5.30
2024-02-13T08:06:02.900Z,5.34
2024-02-13T08:16:30.716Z,5.34
2024-02-13T08:26:54.933Z,5.50
2024-02-13T08:37:19.730Z,5.68
2024-02-13T08:47:43.776Z,5.75
2024-02-13T08:58:17.021Z,5.72
2024-02-13T09:08:43.682Z,5.58
2024-02-13T09:19:08.854Z,5.62
2024-02-13T09:29:32.821Z,5.74
2024-02-13T09:39:58.486Z,5.84
2024-02-13T09:50:31.417Z,5.90
2024-02-13T10:00:58.584Z,5.91
2024-02-13T10:11:38.008Z,5.88
2024-02-13T10:22:07.453Z,5.93
2024-02-13T10:32:34.883Z,6.13
2024-02-13T10:43:00.088Z,6.31
2024-02-13T10:53:25.090Z,6.32
2024-02-13T11:03:50.323Z,6.22
2024-02-13T11:14:19.441Z,6.27
2024-02-13T11:25:07.662Z,6.50
2024-02-13T11:35:33.194Z,6.66
2024-02-13T11:46:05.368Z,6.69
2024-02-13T11:56:29.531Z,6.67
2024-02-13T12:06:54.131Z,6.75
2024-02-13T12:17:19.044Z,6.83
2024-02-13T12:27:43.141Z,6.91
2024-02-13T12:38:16.471Z,7.14
2024-02-13T12:48:44.160Z,7.38
2024-02-13T12:59:14.745Z,7.57
2024-02-13T13:09:40.965Z,7.56
2024-02-13T13:20:12.049Z,7.45
2024-02-13T13:30:46.828Z,7.25
2024-02-13T13:41:11.072Z,7.15
2024-02-13T13:51:35.797Z,6.95
2024-02-13T14:01:59.842Z,6.82
2024-02-13T14:12:24.408Z,6.78
2024-02-13T14:22:50.986Z,6.75
2024-02-13T14:33:16.458Z,6.73
2024-02-13T14:43:42.774Z,6.73
2024-02-13T14:54:08.434Z,6.79
2024-02-13T15:04:36.276Z,6.97
2024-02-13T15:15:00.323Z,7.15
2024-02-13T15:25:25.212Z,7.32
2024-02-13T15:36:06.800Z,7.28
2024-02-13T15:46:49.602Z,7.16
2024-02-13T15:57:14.550Z,7.10
2024-02-13T16:07:39.372Z,7.12
2024-02-13T16:18:03.898Z,7.07
2024-02-13T16:28:28.788Z,6.92
2024-02-13T16:38:53.474Z,6.63
2024-02-13T16:49:17.814Z,6.43
2024-02-13T16:59:42.621Z,6.28
2024-02-13T17:10:11.382Z,5.89
2024-02-13T17:20:36.036Z,5.44
2024-02-13T17:31:00.367Z,5.09
2024-02-13T17:41:28.968Z,4.74
2024-02-13T17:51:54.676Z,4.49
2024-02-13T18:02:20.260Z,4.43
2024-02-13T18:12:44.968Z,4.43
2024-02-13T18:23:09.747Z,4.37
2024-02-13T18:33:35.286Z,4.23
2024-02-13T18:44:01.121Z,4.01
2024-02-13T18:54:26.785Z,3.77
2024-02-13T19:04:53.832Z,3.62
2024-02-13T19:15:19.755Z,3.44
2024-02-13T19:25:43.989Z,3.27
2024-02-13T19:36:08.674Z,3.25
2024-02-13T19:46:33.743Z,3.38
2024-02-13T19:56:58.427Z,3.43
2024-02-13T20:07:23.693Z,3.34
2024-02-13T20:17:48.618Z,3.24
2024-02-13T20:28:13.021Z,3.15
2024-02-13T20:38:39.101Z,3.05
2024-02-13T21:05:32.879Z,3.03
2024-02-13T21:16:01.641Z,3.08
2024-02-13T21:26:27.365Z,3.15
2024-02-13T21:36:52.970Z,3.21
2024-02-13T21:47:21.459Z,3.15
2024-02-13T21:57:46.432Z,2.97
2024-02-13T22:08:13.697Z,2.69
2024-02-13T22:18:42.147Z,2.62
2024-02-13T22:29:11.335Z,2.57
2024-02-13T22:39:36.452Z,2.51
2024-02-13T22:50:01.137Z,2.64
2024-02-13T23:00:43.692Z,2.77
2024-02-13T23:11:08.505Z,2.80
2024-02-13T23:21:35.491Z,2.64
2024-02-13T23:31:59.655Z,2.41
2024-02-13T23:42:24.148Z,2.25
2024-02-13T23:52:48.680Z,2.10
